Time;durP1;ratioP1;P1;durP2;ratioP2;P2;SDS_P1;SDS_P2;PMS_P1;PMS_P2;Temp;Humidity;BMP_temperature;BMP_pressure;BME280_temperature;BME280_humidity;BME280_pressure;Samples;Min_cycle;Max_cycle;Signal;HPM_P1;HPM_P2
2022/10/13 00:02:23;;;;;;;8.77;3.75;;;;;;;18.22;100.00;100748.16;5035154;28;20024;-91
2022/10/13 00:04:49;;;;;;;5.25;3.05;;;;;;;18.15;100.00;100741.78;5034457;28;20045;-91
2022/10/13 00:07:14;;;;;;;4.63;3.50;;;;;;;18.13;100.00;100754.38;5033384;28;20486;-90
2022/10/13 00:09:40;;;;;;;9.60;4.65;;;;;;;17.99;100.00;100750.34;5033216;28;20113;-91
2022/10/13 00:12:05;;;;;;;8.93;4.25;;;;;;;17.95;100.00;100737.47;5034628;28;20483;-90
2022/10/13 00:14:31;;;;;;;7.72;4.18;;;;;;;17.90;100.00;100745.06;5033236;28;20048;-90
2022/10/13 00:16:56;;;;;;;8.07;3.88;;;;;;;17.88;100.00;100739.88;5034865;28;20065;-90
2022/10/13 00:19:22;;;;;;;5.07;3.13;;;;;;;17.88;100.00;100747.03;5032198;28;20029;-90
2022/10/13 00:21:47;;;;;;;7.97;3.47;;;;;;;17.81;100.00;100744.06;5033339;28;20380;-90
2022/10/13 00:24:13;;;;;;;8.32;3.60;;;;;;;17.86;100.00;100743.69;5034846;28;20084;-90
2022/10/13 00:26:38;;;;;;;4.50;3.53;;;;;;;17.88;100.00;100747.03;5034448;28;20029;-90
2022/10/13 00:29:04;;;;;;;5.38;3.88;;;;;;;17.83;100.00;100740.31;5034390;28;20040;-90
2022/10/13 00:31:31;;;;;;;5.28;3.80;;;;;;;17.84;100.00;100747.28;5039360;28;20491;-90
2022/10/13 00:33:58;;;;;;;5.22;3.45;;;;;;;17.81;100.00;100736.94;5043643;28;20079;-91
2022/10/13 00:36:24;;;;;;;6.78;4.03;;;;;;;17.83;100.00;100745.63;5043220;28;20053;-91
2022/10/13 00:38:50;;;;;;;4.40;3.92;;;;;;;17.76;100.00;100741.00;5038978;28;20037;-90
2022/10/13 00:41:16;;;;;;;5.82;4.15;;;;;;;17.79;100.00;100743.34;5058393;28;20018;-90
2022/10/13 00:43:59;;;;;;;4.90;3.85;;;;;;;17.78;100.00;100731.91;5041627;28;20454;-90
2022/10/13 00:46:31;;;;;;;5.55;3.40;;;;;;;17.78;100.00;100731.06;5040649;28;20025;-90
2022/10/13 00:49:05;;;;;;;4.45;3.28;;;;;;;17.77;100.00;100738.22;5039365;28;20025;-90
2022/10/13 00:51:33;;;;;;;4.10;2.83;;;;;;;17.73;100.00;100734.16;5034520;28;20030;-90
2022/10/13 00:54:02;;;;;;;3.50;3.08;;;;;;;17.70;100.00;100729.13;5036629;28;20075;-90
2022/10/13 00:56:28;;;;;;;3.85;3.05;;;;;;;17.67;100.00;100723.25;5036741;28;20033;-90
2022/10/13 00:58:55;;;;;;;5.00;3.17;;;;;;;17.70;100.00;100723.81;5036722;28;20060;-91
2022/10/13 01:01:21;;;;;;;3.25;2.78;;;;;;;17.66;100.00;100719.78;5036108;28;20057;-91
2022/10/13 01:03:47;;;;;;;5.40;2.63;;;;;;;17.64;100.00;100713.78;5034689;28;20083;-91
2022/10/13 01:06:14;;;;;;;3.55;2.90;;;;;;;17.73;100.00;100723.53;5036724;28;20017;-91
2022/10/13 01:08:40;;;;;;;4.38;2.47;;;;;;;17.73;100.00;100722.69;5035625;28;20399;-90
2022/10/13 01:11:51;;;;;;;4.80;3.10;;;;;;;17.77;100.00;100724.94;5037609;28;20030;-91
2022/10/13 01:14:41;;;;;;;2.63;2.37;;;;;;;17.78;100.00;100721.28;5037818;28;20120;-90
2022/10/13 01:17:27;;;;;;;5.50;3.03;;;;;;;17.78;100.00;100718.63;5054763;28;20033;-91
2022/10/13 01:20:02;;;;;;;4.03;2.83;;;;;;;17.75;100.00;100718.94;5034058;28;20527;-91
2022/10/13 01:22:36;;;;;;;4.88;3.17;;;;;;;17.71;100.00;100720.16;5033942;28;20064;-91
2022/10/13 01:25:24;;;;;;;3.95;3.20;;;;;;;17.65;100.00;100710.13;5033573;28;20082;-91
2022/10/13 01:27:49;;;;;;;4.28;3.72;;;;;;;17.71;100.00;100706.88;5033439;28;20036;-92
2022/10/13 01:30:18;;;;;;;4.70;3.58;;;;;;;17.53;100.00;100700.66;5032171;28;20037;-92
2022/10/13 01:33:05;;;;;;;5.30;3.42;;;;;;;17.73;100.00;100698.78;5032100;28;20479;-92
2022/10/13 01:35:34;;;;;;;5.43;3.33;;;;;;;17.60;100.00;100686.66;5031828;28;20057;-92
2022/10/13 01:38:19;;;;;;;3.85;3.30;;;;;;;17.61;100.00;100684.84;5032102;28;20035;-92
2022/10/13 01:40:55;;;;;;;4.15;3.30;;;;;;;17.59;100.00;100676.19;5031919;28;20030;-92
2022/10/13 01:43:29;;;;;;;3.58;3.13;;;;;;;17.60;100.00;100680.53;5033043;28;20032;-91
2022/10/13 01:46:26;;;;;;;5.05;3.03;;;;;;;17.56;100.00;100676.47;5032267;28;20514;-92
2022/10/13 01:48:55;;;;;;;3.53;3.22;;;;;;;17.49;100.00;100667.41;5046058;28;20383;-92
2022/10/13 01:51:24;;;;;;;4.07;3.05;;;;;;;17.52;100.00;100672.44;5031910;28;20026;-92
2022/10/13 01:53:50;;;;;;;3.55;2.72;;;;;;;17.43;100.00;100666.16;5031088;28;20488;-93
2022/10/13 01:56:16;;;;;;;3.88;2.90;;;;;;;17.42;100.00;100667.16;5031756;28;20120;-92
2022/10/13 01:58:43;;;;;;;5.43;2.90;;;;;;;17.41;100.00;100658.31;5031675;28;20029;-92
2022/10/13 02:01:42;;;;;;;3.35;2.65;;;;;;;17.48;100.00;100658.59;5031496;28;20456;-92
2022/10/13 02:04:27;;;;;;;3.33;2.67;;;;;;;17.36;100.00;100657.94;5031262;28;20029;-92
2022/10/13 02:07:22;;;;;;;3.67;2.88;;;;;;;17.49;100.00;100656.78;5031753;28;20043;-92
2022/10/13 02:10:01;;;;;;;4.28;2.67;;;;;;;17.39;100.00;100652.31;5047471;28;20045;-92
2022/10/13 02:12:32;;;;;;;2.55;2.20;;;;;;;17.25;100.00;100656.25;5031478;28;20108;-92
2022/10/13 02:14:59;;;;;;;2.35;2.15;;;;;;;17.39;100.00;100649.66;5014618;28;20041;-92
2022/10/13 02:17:27;;;;;;;3.85;2.80;;;;;;;17.40;100.00;100650.53;5011887;28;20117;-91
2022/10/13 02:19:54;;;;;;;2.20;2.00;;;;;;;17.37;100.00;100648.97;5011815;28;20112;-93
2022/10/13 02:22:23;;;;;;;2.53;2.33;;;;;;;17.37;100.00;100648.97;5011936;28;20097;-93
2022/10/13 02:24:48;;;;;;;3.15;2.63;;;;;;;17.30;100.00;100637.28;5012866;28;20074;-91
2022/10/13 02:27:15;;;;;;;3.08;2.63;;;;;;;17.24;100.00;100635.19;5012841;28;20387;-92
2022/10/13 02:29:53;;;;;;;3.35;3.00;;;;;;;17.33;100.00;100631.66;5030757;28;20021;-92
2022/10/13 02:32:20;;;;;;;3.00;2.72;;;;;;;17.13;100.00;100640.63;5036040;28;20037;-91
2022/10/13 02:34:46;;;;;;;3.67;2.45;;;;;;;17.14;100.00;100629.03;5035257;28;20032;-91
2022/10/13 02:37:11;;;;;;;4.88;2.70;;;;;;;16.96;100.00;100635.06;5035067;28;20081;-91
2022/10/13 02:39:37;;;;;;;3.15;2.22;;;;;;;16.86;100.00;100626.25;5033744;28;20091;-92
2022/10/13 02:42:02;;;;;;;2.95;2.25;;;;;;;16.90;100.00;100630.31;5032870;28;20098;-90
2022/10/13 02:44:28;;;;;;;2.80;2.38;;;;;;;16.89;100.00;100619.84;5031824;28;20040;-92
2022/10/13 02:46:53;;;;;;;4.13;2.10;;;;;;;16.87;100.00;100616.50;5032985;28;20382;-91
2022/10/13 02:49:19;;;;;;;2.38;2.00;;;;;;;16.70;100.00;100612.69;5033017;28;20529;-93
2022/10/13 02:51:44;;;;;;;4.43;2.35;;;;;;;16.66;100.00;100607.66;5031314;28;20033;-91
2022/10/13 02:54:10;;;;;;;4.30;1.75;;;;;;;16.56;100.00;100601.50;5031192;28;20025;-92
2022/10/13 02:56:35;;;;;;;5.35;1.80;;;;;;;16.44;100.00;100613.22;5031498;28;20036;-93
2022/10/13 02:59:00;;;;;;;2.35;1.20;;;;;;;16.35;100.00;100611.38;5030607;28;20549;-93
2022/10/13 03:01:26;;;;;;;2.65;1.92;;;;;;;16.14;100.00;100603.56;5032459;28;20021;-93
2022/10/13 03:03:52;;;;;;;2.50;1.38;;;;;;;16.10;100.00;100610.09;5030985;28;20116;-92
2022/10/13 03:06:17;;;;;;;2.85;1.70;;;;;;;16.03;100.00;100613.28;5032255;28;20029;-93
2022/10/13 03:08:43;;;;;;;2.20;1.50;;;;;;;15.88;100.00;100613.75;5030835;28;20033;-92
2022/10/13 03:11:08;;;;;;;2.20;1.50;;;;;;;15.64;100.00;100604.31;5030982;28;20380;-92
2022/10/13 03:13:36;;;;;;;7.57;1.15;;;;;;;15.53;100.00;100607.88;5013000;28;20037;-92
2022/10/13 03:16:01;;;;;;;4.80;1.20;;;;;;;15.16;100.00;100615.44;5012712;28;20022;-91
2022/10/13 03:18:27;;;;;;;2.65;0.80;;;;;;;15.16;100.00;100610.97;5011157;28;20029;-93
2022/10/13 03:21:00;;;;;;;4.72;1.75;;;;;;;15.34;100.00;100598.00;5027426;28;20095;-92
2022/10/13 03:23:26;;;;;;;5.00;1.67;;;;;;;15.32;100.00;100605.22;5012226;28;20556;-93
2022/10/13 03:25:52;;;;;;;5.22;1.20;;;;;;;15.39;100.00;100595.00;5027669;28;20067;-92
2022/10/13 03:28:18;;;;;;;4.22;1.33;;;;;;;15.40;100.00;100601.94;5026350;28;20100;-92
2022/10/13 03:30:43;;;;;;;2.55;1.15;;;;;;;15.30;100.00;100596.59;5026285;28;20080;-92
2022/10/13 03:33:08;;;;;;;5.78;1.30;;;;;;;15.20;100.00;100596.53;5010997;28;20038;-92
2022/10/13 03:35:35;;;;;;;3.95;0.95;;;;;;;15.14;100.00;100596.22;5010989;28;20184;-92
2022/10/13 03:38:01;;;;;;;4.82;1.25;;;;;;;15.25;100.00;100601.44;5012374;28;20467;-93
2022/10/13 03:40:27;;;;;;;2.53;1.15;;;;;;;15.17;100.00;100595.97;5011032;28;20088;-93
2022/10/13 03:42:52;;;;;;;4.50;1.10;;;;;;;15.13;100.00;100586.63;5010991;28;20502;-92
2022/10/13 03:45:18;;;;;;;3.70;1.10;;;;;;;15.15;100.00;100590.81;5014663;28;20029;-92
2022/10/13 03:47:44;;;;;;;2.85;1.20;;;;;;;15.15;100.00;100588.16;5030725;28;20028;-91
2022/10/13 03:50:09;;;;;;;5.68;1.40;;;;;;;15.03;100.00;100579.44;5030687;28;20017;-93
2022/10/13 03:52:35;;;;;;;2.25;1.08;;;;;;;14.94;100.00;100579.38;5031680;28;20052;-92
2022/10/13 03:55:00;;;;;;;2.33;1.13;;;;;;;14.89;100.00;100585.06;5030801;28;20029;-92
2022/10/13 03:57:26;;;;;;;3.28;1.45;;;;;;;14.76;100.00;100576.47;5033165;28;20022;-92
2022/10/13 03:59:51;;;;;;;3.67;1.27;;;;;;;14.73;100.00;100571.41;5033115;28;20499;-92
2022/10/13 04:02:17;;;;;;;4.53;2.17;;;;;;;14.77;100.00;100588.69;5033982;28;20383;-93
2022/10/13 04:04:42;;;;;;;3.20;1.13;;;;;;;14.67;100.00;100580.69;5034200;28;20049;-92
2022/10/13 04:07:08;;;;;;;4.65;1.17;;;;;;;14.65;100.00;100586.13;5034073;28;20570;-92
2022/10/13 04:09:33;;;;;;;4.82;1.25;;;;;;;14.67;100.00;100575.41;5035403;28;20029;-92
2022/10/13 04:11:59;;;;;;;3.47;1.20;;;;;;;14.65;100.00;100577.34;5032664;28;20033;-92
2022/10/13 04:14:25;;;;;;;8.18;1.27;;;;;;;14.54;100.00;100580.00;5035069;28;20368;-92
2022/10/13 04:16:51;;;;;;;3.45;1.00;;;;;;;14.56;100.00;100570.16;5033351;28;20510;-92
2022/10/13 04:19:16;;;;;;;2.17;0.80;;;;;;;14.59;100.00;100586.63;5033715;28;20110;-93
2022/10/13 04:21:42;;;;;;;5.40;1.60;;;;;;;14.60;100.00;100583.00;5033472;28;20036;-94
2022/10/13 04:24:12;;;;;;;4.57;1.20;;;;;;;14.61;100.00;100579.41;5033584;28;20029;-93
2022/10/13 04:26:38;;;;;;;4.00;1.00;;;;;;;14.61;100.00;100574.13;5033636;28;20036;-93
2022/10/13 04:29:04;;;;;;;2.22;1.15;;;;;;;14.67;100.00;100578.91;5034690;28;20387;-92
2022/10/13 04:31:30;;;;;;;3.00;0.98;;;;;;;14.67;100.00;100576.28;5033026;28;20496;-94
2022/10/13 04:33:56;;;;;;;4.63;1.40;;;;;;;14.75;100.00;100580.06;5033289;28;20462;-92
2022/10/13 04:36:22;;;;;;;3.38;0.88;;;;;;;14.76;100.00;100577.31;5033439;28;20026;-93
2022/10/13 04:38:48;;;;;;;1.88;1.00;;;;;;;14.66;100.00;100585.16;5033482;28;20479;-93
2022/10/13 04:41:16;;;;;;;3.67;0.82;;;;;;;14.71;100.00;100579.50;5032417;28;20025;-92
2022/10/13 04:43:41;;;;;;;4.32;1.20;;;;;;;14.73;100.00;100587.28;5032472;28;20021;-93
2022/10/13 04:46:15;;;;;;;9.85;2.03;;;;;;;14.78;100.00;100588.59;5032835;28;20029;-92
2022/10/13 04:48:41;;;;;;;4.93;1.45;;;;;;;14.72;100.00;100586.44;5033163;28;20088;-93
2022/10/13 04:51:10;;;;;;;3.25;1.30;;;;;;;14.78;100.00;100587.75;5033336;28;20034;-92
2022/10/13 04:53:36;;;;;;;3.00;1.40;;;;;;;14.75;100.00;100586.22;5033354;28;20033;-92
2022/10/13 04:56:05;;;;;;;3.17;1.80;;;;;;;14.74;100.00;100570.47;5032875;28;20034;-91
2022/10/13 04:58:31;;;;;;;2.50;1.40;;;;;;;14.75;100.00;100577.41;5033959;28;20119;-92
2022/10/13 05:00:56;;;;;;;4.13;1.38;;;;;;;14.75;100.00;100573.00;5017213;28;20483;-91
2022/10/13 05:03:23;;;;;;;3.33;1.85;;;;;;;14.90;100.00;100583.25;5013169;28;20017;-93
2022/10/13 05:05:49;;;;;;;3.97;1.63;;;;;;;14.92;100.00;100584.78;5013350;28;20029;-94
2022/10/13 05:08:15;;;;;;;5.68;1.50;;;;;;;14.93;100.00;100582.97;5013317;28;20033;-92
2022/10/13 05:10:40;;;;;;;4.13;1.48;;;;;;;14.90;100.00;100578.78;5012844;28;20030;-91
2022/10/13 05:13:06;;;;;;;5.22;1.67;;;;;;;15.01;100.00;100578.75;5014219;28;20098;-93
2022/10/13 05:15:31;;;;;;;2.03;1.20;;;;;;;15.04;100.00;100581.13;5026800;28;20030;-91
2022/10/13 05:17:58;;;;;;;1.88;1.20;;;;;;;15.15;100.00;100582.03;5032706;28;20079;-91
2022/10/13 05:20:24;;;;;;;2.47;1.45;;;;;;;15.11;100.00;100580.63;5032322;28;20017;-91
2022/10/13 05:22:49;;;;;;;1.98;1.30;;;;;;;15.25;100.00;100580.28;5032736;28;20498;-92
2022/10/13 05:25:15;;;;;;;3.42;1.65;;;;;;;15.23;100.00;100580.41;5033691;28;20034;-91
2022/10/13 05:27:40;;;;;;;5.07;1.88;;;;;;;15.31;100.00;100576.28;5033730;28;20211;-92
2022/10/13 05:30:06;;;;;;;6.53;1.70;;;;;;;15.45;100.00;100568.00;5032160;28;20433;-91
2022/10/13 05:32:34;;;;;;;5.43;1.65;;;;;;;15.56;100.00;100581.16;5032150;28;20025;-91
2022/10/13 05:35:00;;;;;;;6.10;3.42;;;;;;;15.47;100.00;100577.47;5032262;28;20033;-93
2022/10/13 05:37:25;;;;;;;8.15;2.17;;;;;;;15.58;100.00;100575.69;5033688;28;20548;-91
2022/10/13 05:39:51;;;;;;;6.38;1.50;;;;;;;15.61;100.00;100593.97;5033583;28;20032;-92
2022/10/13 05:42:17;;;;;;;3.50;1.90;;;;;;;15.66;100.00;100597.09;5033447;28;20476;-92
2022/10/13 05:44:42;;;;;;;4.78;1.77;;;;;;;15.60;100.00;100587.00;5020978;28;20092;-92
2022/10/13 05:47:08;;;;;;;2.10;1.80;;;;;;;15.58;100.00;100594.22;5025202;28;20033;-92
2022/10/13 05:49:35;;;;;;;3.33;2.33;;;;;;;15.64;100.00;100594.56;5033093;28;20083;-92
2022/10/13 05:52:03;;;;;;;2.17;1.85;;;;;;;15.56;100.00;100589.09;5031916;28;20450;-92
2022/10/13 05:54:45;;;;;;;2.70;2.47;;;;;;;15.56;100.00;100591.75;5032018;28;20538;-92
2022/10/13 05:57:16;;;;;;;2.03;1.80;;;;;;;15.68;100.00;100581.91;5032188;28;20033;-91
2022/10/13 05:59:49;;;;;;;2.58;2.13;;;;;;;15.44;100.00;100585.69;5022386;28;20156;-94
2022/10/13 06:02:18;;;;;;;1.50;1.40;;;;;;;15.55;100.00;100579.47;4997443;28;20025;-93
2022/10/13 06:04:47;;;;;;;1.77;1.40;;;;;;;15.56;100.00;100575.00;4995966;28;20041;-92
2022/10/13 06:07:13;;;;;;;1.42;0.85;;;;;;;15.51;100.00;100562.19;5012325;28;20108;-92
2022/10/13 06:09:40;;;;;;;1.15;0.90;;;;;;;15.45;100.00;100552.94;5017675;28;20464;-92
2022/10/13 06:12:07;;;;;;;1.92;1.27;;;;;;;15.43;100.00;100565.47;5021549;28;20480;-93
2022/10/13 06:14:33;;;;;;;2.40;1.33;;;;;;;15.34;100.00;100558.31;5031545;28;20064;-92
2022/10/13 06:16:58;;;;;;;1.85;1.25;;;;;;;15.12;100.00;100551.38;5027862;28;20026;-93
2022/10/13 06:19:24;;;;;;;2.45;0.98;;;;;;;15.20;100.00;100554.22;5012019;28;20061;-93
2022/10/13 06:21:49;;;;;;;3.22;1.00;;;;;;;15.16;100.00;100565.19;5037578;28;20025;-93
2022/10/13 06:24:21;;;;;;;3.30;1.10;;;;;;;15.08;100.00;100539.38;5025835;28;20045;-96
2022/10/13 06:26:47;;;;;;;5.38;1.70;;;;;;;15.06;100.00;100554.53;5026495;28;20515;-94
2022/10/13 06:29:12;;;;;;;5.30;1.75;;;;;;;15.07;100.00;100543.84;5029735;28;20041;-94
2022/10/13 06:31:38;;;;;;;4.40;1.50;;;;;;;14.99;100.00;100530.44;5017708;28;20037;-93
2022/10/13 06:34:03;;;;;;;3.97;1.63;;;;;;;15.12;100.00;100534.69;5012785;28;20034;-93
2022/10/13 06:36:29;;;;;;;3.53;1.48;;;;;;;15.15;100.00;100537.09;5012916;28;20117;-93
2022/10/13 06:38:54;;;;;;;2.03;1.15;;;;;;;15.19;100.00;100541.97;5012922;28;20026;-94
2022/10/13 06:41:20;;;;;;;4.05;1.90;;;;;;;15.21;100.00;100540.03;5012512;28;20025;-93
2022/10/13 06:43:46;;;;;;;2.30;1.35;;;;;;;15.29;100.00;100535.91;5020200;28;20056;-93
2022/10/13 06:46:11;;;;;;;4.32;2.15;;;;;;;15.38;100.00;100543.88;5031371;28;20060;-93
2022/10/13 06:48:37;;;;;;;2.05;1.40;;;;;;;15.45;100.00;100549.47;5031985;28;20025;-93
2022/10/13 06:51:08;;;;;;;3.55;2.05;;;;;;;15.50;100.00;100546.41;5032966;28;20021;-93
2022/10/13 06:53:34;;;;;;;4.30;1.33;;;;;;;15.46;100.00;100551.13;5032226;28;20057;-93
2022/10/13 06:56:02;;;;;;;3.78;1.70;;;;;;;15.54;100.00;100545.19;5031447;28;20383;-93
2022/10/13 06:58:27;;;;;;;2.20;1.38;;;;;;;15.52;100.00;100541.84;5035746;28;20037;-95
2022/10/13 07:00:54;;;;;;;2.15;1.05;;;;;;;15.49;100.00;100531.53;5038813;28;20029;-96
2022/10/13 07:03:23;;;;;;;1.95;1.25;;;;;;;15.56;100.00;100522.06;5030204;28;20038;-96
2022/10/13 07:05:49;;;;;;;6.75;1.33;;;;;;;15.73;100.00;100529.41;5012564;28;20424;-96
2022/10/13 07:08:15;;;;;;;5.60;2.60;;;;;;;15.91;100.00;100542.84;5032067;28;20018;-96
2022/10/13 07:10:41;;;;;;;4.63;3.17;;;;;;;15.91;100.00;100542.84;5032759;28;20036;-94
2022/10/13 07:13:07;;;;;;;8.80;2.60;;;;;;;16.01;100.00;100554.28;5032743;28;20124;-95
2022/10/13 07:15:32;;;;;;;3.72;2.83;;;;;;;16.00;100.00;100557.09;5028643;28;20107;-94
2022/10/13 07:17:58;;;;;;;3.28;2.28;;;;;;;15.98;100.00;100548.44;5013946;28;20033;-96
2022/10/13 07:20:24;;;;;;;4.35;2.80;;;;;;;15.99;100.00;100539.50;5015095;28;20184;-96
2022/10/13 07:22:53;;;;;;;4.22;2.72;;;;;;;16.07;100.00;100558.22;5030437;28;20034;-96
2022/10/13 07:25:18;;;;;;;4.05;2.92;;;;;;;16.00;100.00;100551.78;5027243;28;20030;-95
2022/10/13 07:27:44;;;;;;;7.00;3.72;;;;;;;16.16;100.00;100562.69;5030491;28;20022;-95
2022/10/13 07:30:10;;;;;;;5.50;3.10;;;;;;;16.16;100.00;100553.91;5020743;28;20036;-92
2022/10/13 07:32:37;;;;;;;4.28;3.70;;;;;;;16.10;100.00;100555.31;5038440;28;20029;-96
2022/10/13 07:35:04;;;;;;;11.30;4.70;;;;;;;16.04;100.00;100554.03;5029324;28;20029;-96
2022/10/13 07:37:29;;;;;;;4.18;3.67;;;;;;;16.25;100.00;100561.88;5015628;28;20029;-96
2022/10/13 07:39:55;;;;;;;13.32;4.30;;;;;;;16.11;100.00;100569.38;5021056;28;20403;-95
2022/10/13 07:42:21;;;;;;;3.75;3.33;;;;;;;16.09;100.00;100573.97;5036126;28;20021;-95
2022/10/13 07:44:46;;;;;;;5.03;3.95;;;;;;;16.13;100.00;100552.34;5033986;28;20025;-95
2022/10/13 07:47:12;;;;;;;5.22;4.22;;;;;;;16.30;100.00;100565.94;5025477;28;20076;-96
2022/10/13 07:49:37;;;;;;;7.15;4.45;;;;;;;16.26;100.00;100563.53;5035237;28;20056;-94
2022/10/13 07:52:03;;;;;;;4.30;3.83;;;;;;;16.37;100.00;100575.00;5035774;28;20024;-96
2022/10/13 07:54:28;;;;;;;6.40;3.58;;;;;;;16.40;100.00;100574.72;5036506;28;20022;-95
2022/10/13 07:56:54;;;;;;;7.57;4.28;;;;;;;16.66;100.00;100575.84;5036825;28;20032;-95
2022/10/13 07:59:21;;;;;;;5.32;4.70;;;;;;;16.72;100.00;100568.31;5035884;28;20026;-94
2022/10/13 08:01:47;;;;;;;6.03;4.25;;;;;;;16.74;100.00;100584.91;5023197;28;20014;-94
2022/10/13 08:04:12;;;;;;;7.65;5.20;;;;;;;16.72;100.00;100571.78;5020986;28;20041;-95
2022/10/13 08:06:38;;;;;;;5.05;4.47;;;;;;;16.78;100.00;100563.28;5016686;28;20021;-95
2022/10/13 08:09:04;;;;;;;4.78;3.85;;;;;;;16.80;100.00;100581.72;5017748;28;20033;-94
2022/10/13 08:11:30;;;;;;;6.43;4.45;;;;;;;16.83;100.00;100576.16;5017137;28;20026;-95
2022/10/13 08:13:59;;;;;;;4.63;4.13;;;;;;;16.80;100.00;100571.09;5016926;28;20017;-95
2022/10/13 08:16:26;;;;;;;5.43;4.03;;;;;;;16.82;100.00;100582.44;5016027;28;20026;-95
2022/10/13 08:18:51;;;;;;;7.60;4.20;;;;;;;16.73;100.00;100584.09;5035451;28;20037;-96
2022/10/13 08:21:19;;;;;;;6.28;3.92;;;;;;;16.74;100.00;100566.38;5047879;28;20021;-95
2022/10/13 08:23:44;;;;;;;5.57;4.30;;;;;;;16.77;100.00;100574.88;5058802;28;20029;-96
2022/10/13 08:26:22;;;;;;;4.30;3.58;;;;;;;16.93;100.00;100570.84;5059317;28;20025;-96
2022/10/13 08:28:48;;;;;;;5.35;4.00;;;;;;;17.05;100.00;100575.84;5060377;28;20058;-95
2022/10/13 08:31:13;;;;;;;5.40;4.40;;;;;;;17.01;100.00;100573.63;5045733;28;20025;-95
2022/10/13 08:33:40;;;;;;;4.35;3.95;;;;;;;17.10;100.00;100579.88;5058924;28;20390;-95
2022/10/13 08:36:06;;;;;;;7.07;4.93;;;;;;;17.20;100.00;100570.94;5050327;28;20021;-93
2022/10/13 08:38:31;;;;;;;7.78;4.25;;;;;;;17.43;100.00;100575.91;5035457;28;20029;-94
2022/10/13 08:40:57;;;;;;;4.70;4.22;;;;;;;17.43;100.00;100570.59;5038289;28;20021;-93
2022/10/13 08:43:23;;;;;;;10.75;4.32;;;;;;;17.49;100.00;100564.69;5036087;28;20025;-94
2022/10/13 08:45:51;;;;;;;4.78;4.00;;;;;;;17.50;100.00;100562.91;5034683;28;21123;-93
2022/10/13 08:48:31;;;;;;;7.32;4.00;;;;;;;17.70;100.00;100584.91;5036013;28;20026;-93
2022/10/13 08:51:01;;;;;;;7.60;4.40;;;;;;;17.68;100.00;100587.69;5034988;28;20014;-92
2022/10/13 08:53:34;;;;;;;6.20;4.38;;;;;;;17.70;100.00;100577.75;5043353;28;20821;-95
2022/10/13 08:56:06;;;;;;;5.90;4.18;;;;;;;17.69;100.00;100568.13;5034062;28;20140;-90
2022/10/13 08:58:34;;;;;;;6.20;4.78;;;;;;;17.57;100.00;100569.28;5015637;28;20022;-91
2022/10/13 09:01:11;;;;;;;5.32;3.88;;;;;;;17.49;100.00;100579.81;5028890;28;20365;-91
2022/10/13 09:03:57;;;;;;;6.35;4.68;;;;;;;17.54;100.00;100585.53;5015129;28;20476;-91
2022/10/13 09:06:37;;;;;;;5.78;3.90;;;;;;;17.55;100.00;100580.03;5019892;28;20036;-92
2022/10/13 09:09:06;;;;;;;5.97;3.90;;;;;;;17.58;100.00;100592.22;5035608;28;20025;-91
2022/10/13 09:11:35;;;;;;;8.52;3.78;;;;;;;17.51;100.00;100583.97;5036121;28;20033;-92
2022/10/13 09:14:06;;;;;;;11.10;6.78;;;;;;;17.55;100.00;100581.88;5035265;28;20394;-93
2022/10/13 09:16:38;;;;;;;22.00;8.65;;;;;;;17.58;100.00;100576.28;5016843;28;20136;-92
2022/10/13 09:19:14;;;;;;;13.82;8.10;;;;;;;17.60;100.00;100579.63;5014486;28;20061;-92
2022/10/13 09:21:40;;;;;;;18.65;9.70;;;;;;;17.68;100.00;100586.88;5015323;28;20109;-93
2022/10/13 09:24:12;;;;;;;16.23;8.88;;;;;;;17.71;100.00;100594.53;5014284;28;20120;-93
2022/10/13 09:26:38;;;;;;;12.50;8.75;;;;;;;17.74;100.00;100592.41;5032285;28;20095;-92
2022/10/13 09:29:16;;;;;;;16.00;10.43;;;;;;;17.86;100.00;100587.78;5031726;28;20045;-92
2022/10/13 09:31:42;;;;;;;17.90;9.43;;;;;;;17.81;100.00;100582.91;5026123;28;20034;-92
2022/10/13 09:34:10;;;;;;;14.52;9.27;;;;;;;17.86;100.00;100590.44;5016109;28;20472;-92
2022/10/13 09:36:37;;;;;;;15.25;8.52;;;;;;;17.88;100.00;100587.66;5013030;28;20065;-91
2022/10/13 09:39:14;;;;;;;17.02;7.80;;;;;;;18.05;100.00;100597.50;5027631;28;20067;-90
2022/10/13 09:41:42;;;;;;;19.85;7.05;;;;;;;17.94;100.00;100600.34;5033455;28;20021;-91
2022/10/13 09:44:12;;;;;;;10.43;5.57;;;;;;;17.92;100.00;100605.78;5036861;28;20033;-91
2022/10/13 09:46:51;;;;;;;10.63;4.70;;;;;;;17.93;100.00;100617.25;5019906;28;20049;-91
2022/10/13 09:49:43;;;;;;;12.45;4.93;;;;;;;18.13;100.00;100618.84;5034849;28;20029;-91
2022/10/13 09:52:11;;;;;;;11.13;5.22;;;;;;;18.32;100.00;100617.03;5024314;28;20017;-91
2022/10/13 09:54:52;;;;;;;13.02;5.60;;;;;;;18.46;100.00;100613.88;5030515;28;20112;-90
2022/10/13 09:57:23;;;;;;;10.03;5.70;;;;;;;18.70;100.00;100604.47;5030828;28;20068;-91
2022/10/13 09:59:57;;;;;;;12.68;5.80;;;;;;;18.94;100.00;100601.22;5031887;28;20117;-91
2022/10/13 10:02:33;;;;;;;15.52;6.90;;;;;;;19.27;100.00;100607.59;5043588;28;20029;-91
2022/10/13 10:05:05;;;;;;;15.52;5.88;;;;;;;19.58;100.00;100610.63;5032761;28;20083;-91
2022/10/13 10:07:31;;;;;;;14.70;6.05;;;;;;;20.05;100.00;100600.56;5029367;28;20028;-91
2022/10/13 10:10:03;;;;;;;13.02;6.32;;;;;;;20.45;98.84;100599.00;5030991;28;20407;-92
2022/10/13 10:12:29;;;;;;;;;;;;;;;20.79;96.58;100609.56;5031533;28;20032;-91
2022/10/13 10:14:55;;;;;;;12.18;5.20;;;;;;;21.05;93.63;100603.22;5031083;28;19932;-91
2022/10/13 10:17:47;;;;;;;11.35;4.45;;;;;;;20.86;87.98;100599.09;5031017;28;20483;-91
2022/10/13 10:20:31;;;;;;;17.38;5.25;;;;;;;21.22;87.96;100590.72;5031867;28;20017;-91
2022/10/13 10:23:15;;;;;;;11.40;5.10;;;;;;;21.17;87.10;100597.41;5032211;28;20029;-91
2022/10/13 10:25:52;;;;;;;10.65;4.60;;;;;;;21.05;85.65;100592.56;5012272;28;20510;-91
2022/10/13 10:28:27;;;;;;;11.18;4.28;;;;;;;20.77;82.90;100591.09;5010789;28;20033;-91
2022/10/13 10:31:01;;;;;;;11.30;5.07;;;;;;;20.63;85.39;100594.38;5012698;28;20087;-90
2022/10/13 10:33:37;;;;;;;10.88;5.07;;;;;;;20.47;86.18;100579.16;5021959;28;20065;-91
2022/10/13 10:36:29;;;;;;;11.25;5.30;;;;;;;20.76;86.62;100593.91;5031610;28;20159;-91
2022/10/13 10:39:01;;;;;;;10.70;5.47;;;;;;;21.03;87.99;100599.91;5031445;28;20080;-91
2022/10/13 10:41:43;;;;;;;9.80;4.85;;;;;;;21.48;86.89;100599.34;5031372;28;20036;-92
2022/10/13 10:44:15;;;;;;;10.57;5.18;;;;;;;21.73;85.50;100608.13;5026795;28;20080;-91
2022/10/13 10:46:53;;;;;;;9.77;4.88;;;;;;;21.67;82.16;100621.38;5041892;28;20020;-95
2022/10/13 10:49:32;;;;;;;11.15;4.47;;;;;;;21.88;80.71;100615.44;5045260;28;20033;-92
2022/10/13 10:52:00;;;;;;;12.00;4.72;;;;;;;21.74;82.36;100616.97;5020992;28;20033;-91
2022/10/13 10:54:49;;;;;;;12.82;6.20;;;;;;;21.73;82.47;100607.31;5012622;28;20438;-91
2022/10/13 10:57:24;;;;;;;15.13;6.07;;;;;;;21.70;83.31;100597.81;5023602;28;20035;-90
2022/10/13 11:00:05;;;;;;;11.05;6.10;;;;;;;21.75;83.11;100598.09;5034323;28;20064;-90
2022/10/13 11:02:52;;;;;;;18.73;8.10;;;;;;;22.21;84.83;100600.06;5034944;28;20029;-91
2022/10/13 11:05:18;;;;;;;11.45;6.63;;;;;;;22.88;85.32;100595.97;5011474;28;20500;-90
2022/10/13 11:07:44;;;;;;;16.00;6.32;;;;;;;23.40;78.02;100588.97;5035701;28;20059;-91
2022/10/13 11:10:12;;;;;;;13.15;6.35;;;;;;;24.47;72.78;100578.59;5033427;28;20093;-91
2022/10/13 11:12:50;;;;;;;16.55;5.63;;;;;;;24.63;64.74;100584.75;5034214;28;20472;-92
2022/10/13 11:15:24;;;;;;;14.38;5.43;;;;;;;24.98;62.61;100572.25;5023820;28;20091;-91
2022/10/13 11:17:49;;;;;;;13.07;5.88;;;;;;;25.25;63.11;100573.28;5036869;28;20025;-92
2022/10/13 11:20:21;;;;;;;11.38;5.05;;;;;;;25.48;61.67;100577.59;5025748;28;20095;-92
2022/10/13 11:22:58;;;;;;;12.55;5.55;;;;;;;25.73;61.92;100581.44;5015491;28;20509;-91
2022/10/13 11:25:36;;;;;;;10.18;4.90;;;;;;;25.28;62.99;100572.91;5030727;28;20564;-92
2022/10/13 11:28:21;;;;;;;10.75;4.93;;;;;;;24.70;59.84;100574.91;5034996;28;20116;-92